Darlington Dam Lodge Airport


Codes: FADP/
Name: Darlington Dam Lodge Airport
City: Port Elizabeth
Country: South Africa
Elevation: 847 ft.

Photos at Darlington Dam Lodge Airport


   Photos courtesy of SpottingLog. You can add your own sightings and photos by signing up for a free trial today.



No photos found.

Weather at Darlington Dam Lodge Airport


Time (UTC)DescriptionTempratureWindCloud coverageVisibilityPressureHumidity
15-Apr-2024 18:00Scattered Clouds18°C9 mph, SE34%10000m1020hPa85%
15-Apr-2024 21:00Scattered Clouds18°C7 mph, SE28%10000m1020hPa87%
16-Apr-2024 00:00Scattered Clouds18°C7 mph, SE41%10000m1019hPa90%
16-Apr-2024 03:00Few Clouds17°C4 mph, SE24%10000m1018hPa93%
16-Apr-2024 06:00Scattered Clouds18°C2 mph, SE26%10000m1019hPa85%
16-Apr-2024 09:00Few Clouds25°C2 mph, NE22%10000m1018hPa48%
16-Apr-2024 12:00Few Clouds29°C7 mph, W17%10000m1015hPa36%
16-Apr-2024 15:00Few Clouds29°C7 mph, SE16%10000m1014hPa34%
16-Apr-2024 18:00Scattered Clouds24°C9 mph, E33%10000m1015hPa61%
16-Apr-2024 21:00Few Clouds22°C7 mph, E20%10000m1015hPa59%
17-Apr-2024 00:00Few Clouds22°C4 mph, NE12%10000m1014hPa53%
17-Apr-2024 03:00Few Clouds21°C2 mph, N19%10000m1014hPa56%
17-Apr-2024 06:00Few Clouds23°C4 mph, N14%10000m1015hPa50%
17-Apr-2024 09:00Clear Sky28°C9 mph, NW0%10000m1015hPa35%
17-Apr-2024 12:00Clear Sky32°C11 mph, NW0%10000m1013hPa27%
17-Apr-2024 15:00Clear Sky31°C7 mph, W0%10000m1013hPa30%
17-Apr-2024 18:00Clear Sky25°C4 mph, E0%10000m1014hPa40%
17-Apr-2024 21:00Scattered Clouds24°C2 mph, E33%10000m1015hPa44%
18-Apr-2024 00:00Scattered Clouds23°C2 mph, E34%10000m1016hPa48%
18-Apr-2024 03:00Few Clouds21°C4 mph, E11%10000m1016hPa53%
18-Apr-2024 06:00Scattered Clouds24°C0 mph, S42%10000m1018hPa48%
18-Apr-2024 09:00Scattered Clouds29°C2 mph, SW33%10000m1018hPa34%
18-Apr-2024 12:00Few Clouds32°C2 mph, W19%10000m1016hPa28%
18-Apr-2024 15:00Clear Sky30°C7 mph, SE8%10000m1016hPa37%
18-Apr-2024 18:00Scattered Clouds21°C7 mph, SE36%10000m1019hPa75%
18-Apr-2024 21:00Overcast Clouds20°C7 mph, SE92%10000m1019hPa86%
19-Apr-2024 00:00Broken Clouds19°C4 mph, S70%10000m1018hPa91%
19-Apr-2024 03:00Broken Clouds18°C2 mph, SE68%10000m1018hPa92%
19-Apr-2024 06:00Broken Clouds19°C2 mph, SE79%10000m1019hPa83%
19-Apr-2024 09:00Overcast Clouds26°C2 mph, NW92%10000m1017hPa51%
19-Apr-2024 12:00Broken Clouds31°C4 mph, W75%10000m1013hPa34%
19-Apr-2024 15:00Clear Sky32°C4 mph, NE3%10000m1011hPa33%
19-Apr-2024 18:00Clear Sky25°C4 mph, SE2%10000m1012hPa53%
19-Apr-2024 21:00Clear Sky21°C4 mph, SE1%10000m1012hPa76%
20-Apr-2024 00:00Clear Sky20°C2 mph, SW4%10000m1012hPa81%
20-Apr-2024 03:00Scattered Clouds20°C2 mph, NW28%10000m1012hPa74%
20-Apr-2024 06:00Scattered Clouds21°C4 mph, SE38%10000m1014hPa72%
20-Apr-2024 09:00Scattered Clouds26°C4 mph, SE26%10000m1014hPa52%
20-Apr-2024 12:00Scattered Clouds29°C7 mph, SE46%10000m1013hPa40%
20-Apr-2024 15:00Overcast Clouds25°C13 mph, SE100%10000m1014hPa56%